createdAt,value
2023-04-14T00:00:48.744Z,82.84
2023-04-14T00:03:16.626Z,83.62
2023-04-14T00:05:43.260Z,85.22
2023-04-14T00:08:09.626Z,86.56
2023-04-14T00:10:36.052Z,88.08
2023-04-14T00:13:02.420Z,88.84
2023-04-14T00:15:28.832Z,90.16
2023-04-14T00:17:55.383Z,90.11
2023-04-14T00:20:21.832Z,90.97
2023-04-14T00:22:48.210Z,90.31
2023-04-14T00:25:14.668Z,90.71
2023-04-14T00:27:41.072Z,90.25
2023-04-14T00:30:08.000Z,90.99
2023-04-14T00:32:34.428Z,91.11
2023-04-14T00:35:03.156Z,91.33
2023-04-14T00:37:30.769Z,93.11
2023-04-14T00:39:57.228Z,93.65
2023-04-14T00:42:23.844Z,93.09
2023-04-14T00:44:50.288Z,93.46
2023-04-14T00:47:17.468Z,93.58
2023-04-14T00:49:43.922Z,94.18
2023-04-14T00:52:10.439Z,95.03
2023-04-14T00:54:38.261Z,95.15
2023-04-14T00:57:05.301Z,95.10
2023-04-14T00:59:31.775Z,93.59
2023-04-14T01:01:59.209Z,93.14
2023-04-14T01:04:33.680Z,93.40
2023-04-14T01:07:07.205Z,92.00
2023-04-14T01:09:33.604Z,91.84
2023-04-14T01:12:38.540Z,92.02
2023-04-14T01:15:12.629Z,91.93
2023-04-14T01:17:50.012Z,92.25
2023-04-14T01:20:48.072Z,92.96
2023-04-14T01:23:27.457Z,92.78
2023-04-14T01:26:42.266Z,92.17
2023-04-14T01:29:29.577Z,92.28
2023-04-14T01:32:02.877Z,92.83
2023-04-14T01:34:51.053Z,92.60
2023-04-14T01:37:19.456Z,93.54
2023-04-14T01:39:50.180Z,93.69
2023-04-14T01:42:19.536Z,93.59
2023-04-14T01:44:49.199Z,93.42
2023-04-14T01:47:17.703Z,93.49
2023-04-14T01:49:45.268Z,93.82
2023-04-14T01:52:13.493Z,95.36
2023-04-14T01:54:41.468Z,95.71
2023-04-14T01:57:09.201Z,95.37
2023-04-14T01:59:37.134Z,96.37
2023-04-14T02:02:05.314Z,98.63
2023-04-14T02:04:32.330Z,99.66
2023-04-14T02:06:59.442Z,100.00
2023-04-14T02:09:28.133Z,100.00
2023-04-14T02:11:54.861Z,100.00
2023-04-14T02:14:22.456Z,100.00
2023-04-14T02:16:49.090Z,99.92
2023-04-14T02:19:18.795Z,99.38
2023-04-14T02:21:46.387Z,98.42
2023-04-14T02:24:12.768Z,97.52
2023-04-14T02:26:44.275Z,97.03
2023-04-14T02:29:12.757Z,97.28
2023-04-14T02:31:50.371Z,98.31
2023-04-14T02:34:18.977Z,99.18
2023-04-14T02:36:48.188Z,100.00
2023-04-14T02:39:21.499Z,99.66
2023-04-14T02:41:50.256Z,99.61
2023-04-14T02:44:19.501Z,98.77
2023-04-14T02:46:55.947Z,99.61
2023-04-14T02:49:23.390Z,99.86
2023-04-14T02:51:50.376Z,99.92
2023-04-14T02:54:18.188Z,100.00
2023-04-14T02:56:44.676Z,100.00
2023-04-14T02:59:11.310Z,100.00
2023-04-14T03:01:37.823Z,100.00
2023-04-14T03:04:04.467Z,100.00
2023-04-14T03:06:31.707Z,100.00
2023-04-14T03:09:00.044Z,100.00
2023-04-14T03:11:27.483Z,100.00
2023-04-14T03:13:56.378Z,100.00
2023-04-14T03:16:23.081Z,100.00
2023-04-14T03:18:50.627Z,100.00
2023-04-14T03:21:19.114Z,100.00
2023-04-14T03:23:46.755Z,100.00
2023-04-14T03:26:15.006Z,100.00
2023-04-14T03:28:42.656Z,100.00
2023-04-14T03:31:10.809Z,100.00
2023-04-14T03:33:38.865Z,100.00
2023-04-14T03:36:07.432Z,100.00
2023-04-14T03:38:34.620Z,100.00
2023-04-14T03:41:04.128Z,100.00
2023-04-14T03:43:31.532Z,100.00
2023-04-14T03:45:58.169Z,100.00
2023-04-14T03:48:26.342Z,100.00
2023-04-14T03:50:53.779Z,100.00
2023-04-14T03:53:21.205Z,100.00
2023-04-14T03:55:49.728Z,100.00
2023-04-14T03:58:17.222Z,100.00
2023-04-14T04:00:44.788Z,100.00
2023-04-14T04:03:12.301Z,100.00
2023-04-14T04:05:40.888Z,100.00
2023-04-14T04:08:08.273Z,100.00
2023-04-14T04:10:35.446Z,100.00
2023-04-14T04:13:03.039Z,100.00
2023-04-14T04:15:31.283Z,100.00
2023-04-14T04:17:58.390Z,100.00
2023-04-14T04:20:25.926Z,100.00
2023-04-14T04:22:52.726Z,100.00
2023-04-14T04:25:19.621Z,100.00
2023-04-14T04:27:46.447Z,100.00
2023-04-14T04:30:13.302Z,100.00
2023-04-14T04:32:39.737Z,100.00
2023-04-14T04:35:07.398Z,100.00
2023-04-14T04:37:34.708Z,100.00
2023-04-14T04:40:01.122Z,100.00
2023-04-14T04:42:27.553Z,100.00
2023-04-14T04:44:53.959Z,100.00
2023-04-14T04:47:20.329Z,100.00
2023-04-14T04:49:46.734Z,100.00
2023-04-14T04:52:13.276Z,100.00
2023-04-14T04:54:39.912Z,100.00
2023-04-14T04:57:06.316Z,100.00
2023-04-14T04:59:33.137Z,100.00
2023-04-14T05:01:59.614Z,100.00
2023-04-14T05:04:26.176Z,100.00
2023-04-14T05:06:52.606Z,100.00
2023-04-14T05:09:19.056Z,100.00
2023-04-14T05:11:45.444Z,100.00
2023-04-14T05:14:11.835Z,100.00
2023-04-14T05:16:38.220Z,100.00
2023-04-14T05:19:04.618Z,100.00
2023-04-14T05:21:31.056Z,100.00
2023-04-14T05:23:57.566Z,100.00
2023-04-14T05:26:38.962Z,100.00
2023-04-14T05:29:10.551Z,100.00
2023-04-14T05:31:37.055Z,100.00
2023-04-14T05:34:03.663Z,100.00
2023-04-14T05:36:30.978Z,100.00
2023-04-14T05:38:57.428Z,100.00
2023-04-14T05:41:23.836Z,100.00
2023-04-14T05:43:50.697Z,100.00
2023-04-14T05:46:17.605Z,100.00
2023-04-14T05:48:44.155Z,100.00
2023-04-14T05:51:10.604Z,100.00
2023-04-14T05:53:36.990Z,100.00
2023-04-14T05:56:03.550Z,100.00
2023-04-14T05:58:29.930Z,100.00
2023-04-14T06:00:56.314Z,100.00
2023-04-14T06:03:22.888Z,100.00
2023-04-14T06:05:50.617Z,100.00
2023-04-14T06:08:17.134Z,100.00
2023-04-14T06:10:43.654Z,100.00
2023-04-14T06:13:11.032Z,100.00
2023-04-14T06:15:37.597Z,100.00
2023-04-14T06:18:04.156Z,100.00
2023-04-14T06:20:32.163Z,100.00
2023-04-14T06:23:00.726Z,100.00
2023-04-14T06:25:27.221Z,100.00
2023-04-14T06:27:53.634Z,100.00
2023-04-14T06:30:20.078Z,99.63
2023-04-14T06:32:48.461Z,99.91
2023-04-14T06:35:26.032Z,98.79
2023-04-14T06:37:58.567Z,97.97
2023-04-14T06:40:25.070Z,97.56
2023-04-14T06:42:51.450Z,96.25
2023-04-14T06:45:17.932Z,95.34
2023-04-14T06:47:44.382Z,94.75
2023-04-14T06:50:12.091Z,93.75
2023-04-14T06:52:38.509Z,92.95
2023-04-14T06:55:05.311Z,91.14
2023-04-14T06:57:31.696Z,90.10
2023-04-14T06:59:58.148Z,91.29
2023-04-14T07:02:24.663Z,94.73
2023-04-14T07:04:52.018Z,95.74
2023-04-14T07:07:18.516Z,94.36
2023-04-14T07:09:45.045Z,93.32
2023-04-14T07:12:15.423Z,92.33
2023-04-14T07:14:42.640Z,90.87
2023-04-14T07:17:09.361Z,87.21
2023-04-14T07:19:35.780Z,85.69
2023-04-14T07:22:02.424Z,84.99
2023-04-14T07:24:28.886Z,83.72
2023-04-14T07:26:55.435Z,82.60
2023-04-14T07:29:21.836Z,81.39
2023-04-14T07:31:48.300Z,80.42
2023-04-14T07:34:14.700Z,80.36
2023-04-14T07:36:41.131Z,82.68
2023-04-14T07:39:07.570Z,83.27
2023-04-14T07:41:33.976Z,84.26
2023-04-14T07:44:00.726Z,87.52
2023-04-14T07:46:27.776Z,87.78
2023-04-14T07:48:54.308Z,87.58
2023-04-14T07:51:20.875Z,85.32
2023-04-14T07:53:47.290Z,82.93
2023-04-14T07:56:15.585Z,79.96
2023-04-14T07:58:42.003Z,78.50
2023-04-14T08:01:08.406Z,79.76
2023-04-14T08:03:37.255Z,77.98
2023-04-14T08:06:07.387Z,75.98
2023-04-14T08:08:34.571Z,74.58
2023-04-14T08:11:01.069Z,73.92
2023-04-14T08:13:27.522Z,71.83
2023-04-14T08:15:53.909Z,71.93
2023-04-14T08:18:20.421Z,72.10
2023-04-14T08:20:46.858Z,70.30
2023-04-14T08:23:13.311Z,70.35
2023-04-14T08:25:39.751Z,69.93
2023-04-14T08:28:06.174Z,68.29
2023-04-14T08:30:32.575Z,68.25
2023-04-14T08:32:59.322Z,67.07
2023-04-14T08:35:39.190Z,66.54
2023-04-14T08:38:06.760Z,65.49
2023-04-14T08:40:41.100Z,65.01
2023-04-14T08:43:08.010Z,63.83
2023-04-14T08:45:34.968Z,62.51
2023-04-14T08:48:05.690Z,61.93
2023-04-14T08:50:36.970Z,63.91
2023-04-14T08:53:06.504Z,65.50
2023-04-14T08:55:33.465Z,66.72
2023-04-14T08:58:02.185Z,66.91
2023-04-14T09:00:28.672Z,67.60
2023-04-14T09:02:55.992Z,68.00
2023-04-14T09:05:22.466Z,69.27
2023-04-14T09:07:49.413Z,68.94
2023-04-14T09:10:16.628Z,66.44
2023-04-14T09:12:43.093Z,64.33
2023-04-14T09:15:10.288Z,63.19
2023-04-14T09:17:37.227Z,61.50
2023-04-14T09:20:38.105Z,59.77
2023-04-14T09:22:51.135Z,59.39
2023-04-14T09:25:17.630Z,60.14
2023-04-14T09:27:44.295Z,60.30
2023-04-14T09:30:11.263Z,59.12
2023-04-14T09:32:38.521Z,57.74
2023-04-14T09:35:06.169Z,57.79
2023-04-14T09:37:43.819Z,59.78
2023-04-14T09:40:11.845Z,60.96
2023-04-14T09:42:39.944Z,60.69
2023-04-14T09:45:07.036Z,59.88
2023-04-14T09:47:33.471Z,59.30
2023-04-14T09:50:03.133Z,61.07
2023-04-14T09:52:37.770Z,62.62
2023-04-14T09:55:07.487Z,61.87
2023-04-14T09:57:35.541Z,60.27
2023-04-14T10:00:01.971Z,57.66
2023-04-14T10:02:28.671Z,54.98
2023-04-14T10:05:05.440Z,53.55
2023-04-14T10:07:33.480Z,54.47
2023-04-14T10:10:06.826Z,54.61
2023-04-14T10:12:33.400Z,53.33
2023-04-14T10:15:00.051Z,52.08
2023-04-14T10:17:29.174Z,51.48
2023-04-14T10:19:56.441Z,52.89
2023-04-14T10:22:23.735Z,50.36
2023-04-14T10:24:51.248Z,50.40
2023-04-14T10:27:17.675Z,51.08
2023-04-14T10:29:44.078Z,50.05
2023-04-14T10:32:13.577Z,49.37
2023-04-14T10:34:54.705Z,48.25
2023-04-14T10:37:21.184Z,48.54
2023-04-14T10:39:56.233Z,49.75
2023-04-14T10:42:23.237Z,50.87
2023-04-14T10:45:06.756Z,50.01
2023-04-14T10:47:35.272Z,49.74
2023-04-14T10:50:18.497Z,48.41
2023-04-14T10:52:58.831Z,47.22
2023-04-14T10:55:27.856Z,47.97
2023-04-14T10:58:05.162Z,48.79
2023-04-14T11:00:34.844Z,49.38
2023-04-14T11:03:11.963Z,48.78
2023-04-14T11:05:48.495Z,49.45
2023-04-14T11:08:26.304Z,48.70
2023-04-14T11:11:04.087Z,50.82
2023-04-14T11:13:31.998Z,52.08
2023-04-14T11:16:01.893Z,50.70
2023-04-14T11:18:28.224Z,51.77
2023-04-14T11:21:15.069Z,51.39
2023-04-14T11:23:42.304Z,49.89
2023-04-14T11:26:09.859Z,50.18
2023-04-14T11:28:38.319Z,50.62
2023-04-14T11:31:06.230Z,48.95
2023-04-14T11:33:34.318Z,47.23
2023-04-14T11:36:02.535Z,48.79
2023-04-14T11:38:29.885Z,48.00
2023-04-14T11:40:56.783Z,46.22
2023-04-14T11:43:23.776Z,44.23
2023-04-14T11:45:51.660Z,42.97
2023-04-14T11:48:19.610Z,42.37
2023-04-14T11:50:48.017Z,41.79
2023-04-14T11:53:17.258Z,40.26
2023-04-14T11:55:48.912Z,39.39
2023-04-14T11:58:19.756Z,39.05
2023-04-14T12:00:48.213Z,38.05
2023-04-14T12:03:14.927Z,37.71
2023-04-14T12:05:41.895Z,37.92
2023-04-14T12:08:12.227Z,38.10
2023-04-14T12:10:42.163Z,39.50
2023-04-14T12:13:09.925Z,41.18
2023-04-14T12:15:37.315Z,42.04
2023-04-14T12:18:15.807Z,40.84
2023-04-14T12:20:46.854Z,39.11
2023-04-14T12:23:13.636Z,39.86
2023-04-14T12:25:40.407Z,40.60
2023-04-14T12:28:06.931Z,38.96
2023-04-14T12:30:34.558Z,39.26
2023-04-14T12:33:08.636Z,38.73
2023-04-14T12:35:35.148Z,38.45
2023-04-14T12:38:01.546Z,36.54
2023-04-14T12:40:38.866Z,36.31
2023-04-14T12:43:05.322Z,35.24
2023-04-14T12:45:41.057Z,34.69
2023-04-14T12:48:08.314Z,35.67
2023-04-14T12:50:34.891Z,36.55
2023-04-14T12:53:01.531Z,37.50
2023-04-14T12:55:29.772Z,38.05
2023-04-14T12:57:58.324Z,37.88
2023-04-14T13:00:27.442Z,38.48
2023-04-14T13:02:55.572Z,37.53
2023-04-14T13:05:22.704Z,36.97
2023-04-14T13:07:49.207Z,35.80
2023-04-14T13:10:15.860Z,36.11
2023-04-14T13:12:42.584Z,36.02
2023-04-14T13:15:09.496Z,37.51
2023-04-14T13:17:55.939Z,40.33
2023-04-14T13:20:22.453Z,41.69
2023-04-14T13:22:48.851Z,38.66
2023-04-14T13:25:15.357Z,36.47
2023-04-14T13:27:41.730Z,34.76
2023-04-14T13:30:08.938Z,34.70
2023-04-14T13:32:35.374Z,33.72
2023-04-14T13:35:01.774Z,33.74
2023-04-14T13:37:28.217Z,34.47
2023-04-14T13:39:54.892Z,34.84
2023-04-14T13:42:21.258Z,37.15
2023-04-14T13:44:48.027Z,38.13
2023-04-14T13:47:14.407Z,38.25
2023-04-14T13:49:40.804Z,38.83
2023-04-14T13:52:08.245Z,40.96
2023-04-14T13:54:35.336Z,41.44
2023-04-14T13:57:01.803Z,41.91
2023-04-14T13:59:28.294Z,41.60
2023-04-14T14:01:54.807Z,41.01
2023-04-14T14:04:21.586Z,42.71
2023-04-14T14:06:48.067Z,44.27
2023-04-14T14:09:14.487Z,44.35
2023-04-14T14:11:44.040Z,44.70
2023-04-14T14:14:12.730Z,45.10
2023-04-14T14:16:39.252Z,45.66
2023-04-14T14:19:07.979Z,46.19
2023-04-14T14:21:34.425Z,46.41
2023-04-14T14:24:01.374Z,45.85
2023-04-14T14:26:27.980Z,46.05
2023-04-14T14:28:54.365Z,45.39
2023-04-14T14:31:20.776Z,45.55
2023-04-14T14:33:47.286Z,44.09
2023-04-14T14:36:14.958Z,44.19
2023-04-14T14:38:41.371Z,45.88
2023-04-14T14:41:07.759Z,46.21
2023-04-14T14:43:34.164Z,47.15
2023-04-14T14:46:01.588Z,46.60
2023-04-14T14:48:28.140Z,45.90
2023-04-14T14:50:54.517Z,45.71
2023-04-14T14:53:20.868Z,45.11
2023-04-14T14:55:47.409Z,46.17
2023-04-14T14:58:13.858Z,45.80
2023-04-14T15:00:40.285Z,44.81
2023-04-14T15:03:06.726Z,44.32
2023-04-14T15:05:33.520Z,44.03
2023-04-14T15:07:59.927Z,43.78
2023-04-14T15:10:26.630Z,44.50
2023-04-14T15:12:53.622Z,45.31
2023-04-14T15:15:20.076Z,47.36
2023-04-14T15:17:46.566Z,48.42
2023-04-14T15:20:13.175Z,48.69
2023-04-14T15:22:39.593Z,48.96
2023-04-14T15:25:07.029Z,48.21
2023-04-14T15:27:33.443Z,47.25
2023-04-14T15:30:00.029Z,49.20
2023-04-14T15:32:27.287Z,49.46
2023-04-14T15:34:54.490Z,48.66
2023-04-14T15:37:20.940Z,49.15
2023-04-14T15:39:47.332Z,49.52
2023-04-14T15:42:13.862Z,50.32
2023-04-14T15:44:40.320Z,50.36
2023-04-14T15:47:06.764Z,48.64
2023-04-14T15:49:33.141Z,48.22
2023-04-14T15:51:59.512Z,49.39
2023-04-14T15:54:26.861Z,51.55
2023-04-14T15:56:53.255Z,52.53
2023-04-14T15:59:20.589Z,50.74
2023-04-14T16:01:47.364Z,51.15
2023-04-14T16:04:13.951Z,47.26
2023-04-14T16:06:40.650Z,45.03
2023-04-14T16:09:07.094Z,42.68
2023-04-14T16:11:36.306Z,41.43
2023-04-14T16:14:03.105Z,40.29
2023-04-14T16:16:29.779Z,41.25
2023-04-14T16:18:56.167Z,40.26
2023-04-14T16:21:22.548Z,39.27
2023-04-14T16:23:48.936Z,36.83
2023-04-14T16:26:15.991Z,35.14
2023-04-14T16:28:42.770Z,34.52
2023-04-14T16:31:09.217Z,37.02
2023-04-14T16:33:35.698Z,38.24
2023-04-14T16:36:08.764Z,37.91
2023-04-14T16:38:35.343Z,35.29
2023-04-14T16:41:02.498Z,35.66
2023-04-14T16:43:29.048Z,34.18
2023-04-14T16:46:05.019Z,33.14
2023-04-14T16:48:32.384Z,34.37
2023-04-14T16:51:09.124Z,32.50
2023-04-14T16:53:36.446Z,32.46
2023-04-14T16:56:12.952Z,33.24
2023-04-14T16:58:39.827Z,34.71
2023-04-14T17:01:07.128Z,37.07
2023-04-14T17:03:34.198Z,39.29
2023-04-14T17:06:00.814Z,41.45
2023-04-14T17:08:27.210Z,43.51
2023-04-14T17:10:53.574Z,46.96
2023-04-14T17:13:20.313Z,50.18
2023-04-14T17:15:55.688Z,51.69
2023-04-14T17:18:28.619Z,52.28
2023-04-14T17:20:54.992Z,54.64
2023-04-14T17:23:21.798Z,56.37
2023-04-14T17:25:48.512Z,57.50
2023-04-14T17:28:15.494Z,58.75
2023-04-14T17:30:42.081Z,61.23
2023-04-14T17:33:08.678Z,63.13
2023-04-14T17:35:35.460Z,64.73
2023-04-14T17:38:02.247Z,65.05
2023-04-14T17:40:28.723Z,64.58
2023-04-14T17:42:55.561Z,63.25
2023-04-14T17:45:23.202Z,63.05
2023-04-14T17:47:53.598Z,62.48
2023-04-14T17:50:21.018Z,62.27
2023-04-14T17:52:47.504Z,63.73
2023-04-14T17:55:14.630Z,64.32
2023-04-14T17:57:41.099Z,63.53
2023-04-14T18:00:09.697Z,67.69
2023-04-14T18:02:38.417Z,65.24
2023-04-14T18:05:09.280Z,60.82
2023-04-14T18:07:36.842Z,57.07
2023-04-14T18:10:03.575Z,55.75
2023-04-14T18:12:30.879Z,56.26
2023-04-14T18:14:57.316Z,56.75
2023-04-14T18:17:24.550Z,57.05
2023-04-14T18:19:51.131Z,58.21
2023-04-14T18:22:17.514Z,60.03
2023-04-14T18:29:42.644Z,66.23
2023-04-14T18:32:09.235Z,65.68
2023-04-14T18:34:35.726Z,67.76
2023-04-14T18:37:03.835Z,66.46
2023-04-14T18:39:37.369Z,65.56
2023-04-14T18:42:04.465Z,65.31
2023-04-14T18:44:30.935Z,63.48
2023-04-14T18:46:57.338Z,64.76
2023-04-14T18:49:23.943Z,63.13
2023-04-14T18:51:50.691Z,64.76
2023-04-14T18:54:17.645Z,63.85
2023-04-14T18:56:44.039Z,65.89
2023-04-14T18:59:10.519Z,65.11
2023-04-14T19:01:36.919Z,64.51
2023-04-14T19:04:03.481Z,64.47
2023-04-14T19:06:29.992Z,64.38
2023-04-14T19:08:56.549Z,65.50
2023-04-14T19:11:23.452Z,66.31
2023-04-14T19:13:49.853Z,67.83
2023-04-14T19:16:16.325Z,67.83
2023-04-14T19:18:42.740Z,68.63
2023-04-14T19:21:09.210Z,70.08
2023-04-14T19:23:36.677Z,71.05
2023-04-14T19:26:03.528Z,73.01
2023-04-14T19:28:30.083Z,73.74
2023-04-14T19:30:56.499Z,73.11
2023-04-14T19:33:23.827Z,73.95
2023-04-14T19:35:51.604Z,74.19
2023-04-14T19:38:19.025Z,74.75
2023-04-14T19:40:48.720Z,73.62
2023-04-14T19:43:18.751Z,74.49
2023-04-14T19:45:54.842Z,74.68
2023-04-14T19:48:23.875Z,75.58
2023-04-14T19:50:54.090Z,75.38
2023-04-14T19:53:21.590Z,75.22
2023-04-14T19:55:50.127Z,75.12
2023-04-14T19:58:20.076Z,75.45
2023-04-14T20:00:48.863Z,75.09
2023-04-14T20:03:15.410Z,74.92
2023-04-14T20:05:42.706Z,75.71
2023-04-14T20:08:09.109Z,75.70
2023-04-14T20:10:35.736Z,76.45
2023-04-14T20:13:02.388Z,76.71
2023-04-14T20:15:29.113Z,76.72
2023-04-14T20:17:55.647Z,77.41
2023-04-14T20:20:22.205Z,77.77
2023-04-14T20:22:49.426Z,79.39
2023-04-14T20:25:17.787Z,79.23
2023-04-14T20:27:45.010Z,78.71
2023-04-14T20:30:12.414Z,78.89
2023-04-14T20:32:38.897Z,79.50
2023-04-14T20:35:05.630Z,78.96
2023-04-14T20:37:32.058Z,79.58
2023-04-14T20:39:58.435Z,80.04
2023-04-14T20:42:25.169Z,82.46
2023-04-14T20:44:51.590Z,82.96
2023-04-14T20:47:17.966Z,83.47
2023-04-14T20:49:44.864Z,83.50
2023-04-14T20:52:11.337Z,82.76
2023-04-14T20:54:37.771Z,82.90
2023-04-14T20:57:05.403Z,81.32
2023-04-14T20:59:32.605Z,80.24
2023-04-14T21:01:59.145Z,80.04
2023-04-14T21:04:26.020Z,79.48
2023-04-14T21:06:52.772Z,79.17
2023-04-14T21:09:21.224Z,79.03
2023-04-14T21:11:47.719Z,80.71
2023-04-14T21:15:47.240Z,81.74
2023-04-14T21:17:20.433Z,83.03
2023-04-14T21:19:47.001Z,83.07
2023-04-14T21:22:13.387Z,82.72
2023-04-14T21:24:39.843Z,82.83
2023-04-14T21:27:06.520Z,82.65
2023-04-14T21:29:32.925Z,82.22
2023-04-14T21:31:59.614Z,82.85
2023-04-14T21:34:27.366Z,83.05
2023-04-14T21:36:53.912Z,83.69
2023-04-14T21:39:21.718Z,83.37
2023-04-14T21:41:48.504Z,83.90
2023-04-14T21:44:15.604Z,82.99
2023-04-14T21:46:42.094Z,83.06
2023-04-14T21:49:08.504Z,83.29
2023-04-14T21:51:34.896Z,84.83
2023-04-14T21:54:01.291Z,86.07
2023-04-14T21:56:27.855Z,87.00
2023-04-14T21:58:54.352Z,87.08
2023-04-14T22:01:20.820Z,87.71
2023-04-14T22:03:47.513Z,88.21
2023-04-14T22:06:14.256Z,88.53
2023-04-14T22:08:40.921Z,88.78
2023-04-14T22:11:07.475Z,89.36
2023-04-14T22:13:33.909Z,90.63
2023-04-14T22:16:00.471Z,90.28
2023-04-14T22:18:30.848Z,90.69
2023-04-14T22:20:57.260Z,91.26
2023-04-14T22:23:23.641Z,90.37
2023-04-14T22:25:50.708Z,90.80
2023-04-14T22:28:17.083Z,90.74
2023-04-14T22:30:44.038Z,91.62
2023-04-14T22:33:10.467Z,92.21
2023-04-14T22:35:36.917Z,93.80
2023-04-14T22:38:03.396Z,93.88
2023-04-14T22:40:29.776Z,93.84
2023-04-14T22:42:56.579Z,93.63
2023-04-14T22:45:23.048Z,92.53
2023-04-14T22:47:49.519Z,92.36
2023-04-14T22:50:15.955Z,92.10
2023-04-14T22:52:42.465Z,91.39
2023-04-14T22:55:08.904Z,90.89
2023-04-14T22:57:35.356Z,90.50
2023-04-14T23:00:08.848Z,92.06
2023-04-14T23:02:36.106Z,93.63
2023-04-14T23:05:04.072Z,94.02
2023-04-14T23:07:30.447Z,93.68
2023-04-14T23:09:57.458Z,95.81
2023-04-14T23:12:23.860Z,97.14
2023-04-14T23:14:50.422Z,97.74
2023-04-14T23:17:16.903Z,97.41
2023-04-14T23:19:43.321Z,96.83
2023-04-14T23:22:10.053Z,95.79
2023-04-14T23:24:36.406Z,94.64
2023-04-14T23:27:03.009Z,94.79
2023-04-14T23:29:29.428Z,95.73
2023-04-14T23:31:56.386Z,97.14
2023-04-14T23:34:22.812Z,99.20
2023-04-14T23:36:49.416Z,100.00
2023-04-14T23:39:15.792Z,100.00
2023-04-14T23:41:42.513Z,100.00
2023-04-14T23:44:09.076Z,100.00
2023-04-14T23:46:35.519Z,100.00
2023-04-14T23:49:10.417Z,100.00
2023-04-14T23:51:48.648Z,100.00
2023-04-14T23:54:15.360Z,100.00
2023-04-14T23:56:41.761Z,100.00
2023-04-14T23:59:08.542Z,100.00
